createdAt,value
2022-12-09T00:01:18.849Z,93111.84
2022-12-09T00:03:46.168Z,93104.56
2022-12-09T00:06:27.561Z,93096.53
2022-12-09T00:08:55.506Z,93093.25
2022-12-09T00:11:22.726Z,93090.31
2022-12-09T00:14:12.574Z,93089.38
2022-12-09T00:16:40.083Z,93081.47
2022-12-09T00:19:06.982Z,93073.91
2022-12-09T00:21:34.708Z,93067.63
2022-12-09T00:24:06.495Z,93064.13
2022-12-09T00:26:33.769Z,93055.97
2022-12-09T00:29:01.041Z,93058.03
2022-12-09T00:31:30.177Z,93066.44
2022-12-09T00:33:58.888Z,93058.53
2022-12-09T00:36:27.200Z,93051.53
2022-12-09T00:38:55.501Z,93057.16
2022-12-09T00:41:25.650Z,93048.81
2022-12-09T00:43:57.975Z,93047.97
2022-12-09T00:46:25.245Z,93047.13
2022-12-09T00:48:57.361Z,93047.75
2022-12-09T00:51:24.819Z,93046.84
2022-12-09T00:53:52.255Z,93045.53
2022-12-09T00:56:19.059Z,93043.69
2022-12-09T00:58:45.896Z,93035.22
2022-12-09T01:01:13.114Z,93038.44
2022-12-09T01:03:41.765Z,93022.91
2022-12-09T01:06:10.783Z,93017.22
2022-12-09T01:08:39.330Z,93023.72
2022-12-09T01:11:20.497Z,93013.88
2022-12-09T01:13:55.132Z,93018.03
2022-12-09T01:16:24.657Z,93026.09
2022-12-09T01:18:52.760Z,93021.38
2022-12-09T01:21:20.857Z,93020.22
2022-12-09T01:23:47.577Z,93018.38
2022-12-09T01:26:14.277Z,93028.91
2022-12-09T01:28:41.233Z,93022.47
2022-12-09T01:31:29.407Z,93017.81
2022-12-09T01:33:56.288Z,93014.97
2022-12-09T01:36:28.433Z,93011.06
2022-12-09T01:38:56.812Z,93007.97
2022-12-09T01:41:23.693Z,93008.91
2022-12-09T01:44:16.396Z,93004.34
2022-12-09T01:46:43.811Z,93003.56
2022-12-09T01:49:14.388Z,93003.75
2022-12-09T01:51:41.385Z,92996.81
2022-12-09T01:54:08.654Z,92994.97
2022-12-09T01:56:35.969Z,92989.31
2022-12-09T01:59:05.419Z,92982.03
2022-12-09T02:01:32.766Z,92981.44
2022-12-09T02:04:00.483Z,92969.34
2022-12-09T02:06:28.218Z,92974.66
2022-12-09T02:08:55.120Z,92963.19
2022-12-09T02:11:37.022Z,92957.91
2022-12-09T02:14:08.326Z,92966.78
2022-12-09T02:16:43.930Z,92957.06
2022-12-09T02:19:43.178Z,92957.00
2022-12-09T02:22:10.249Z,92945.22
2022-12-09T02:24:46.127Z,92946.78
2022-12-09T02:27:23.500Z,92944.78
2022-12-09T02:30:19.504Z,92943.09
2022-12-09T02:33:10.050Z,92928.91
2022-12-09T02:35:39.998Z,92931.56
2022-12-09T02:38:12.396Z,92925.59
2022-12-09T02:41:02.790Z,92926.53
2022-12-09T02:43:36.184Z,92920.97
2022-12-09T02:46:02.986Z,92916.34
2022-12-09T02:48:51.689Z,92909.03
2022-12-09T02:51:19.353Z,92906.34
2022-12-09T02:53:48.382Z,92904.19
2022-12-09T02:56:15.756Z,92904.50
2022-12-09T02:58:42.857Z,92903.84
2022-12-09T03:01:23.101Z,92886.69
2022-12-09T03:03:51.132Z,92877.28
2022-12-09T03:06:18.531Z,92882.44
2022-12-09T03:09:01.087Z,92874.19
2022-12-09T03:11:28.476Z,92872.75
2022-12-09T03:14:19.560Z,92872.06
2022-12-09T03:17:08.791Z,92863.94
2022-12-09T03:19:42.800Z,92861.63
2022-12-09T03:22:12.307Z,92864.88
2022-12-09T03:24:42.169Z,92853.31
2022-12-09T03:27:10.419Z,92854.63
2022-12-09T03:29:38.831Z,92850.19
2022-12-09T03:32:06.856Z,92850.38
2022-12-09T03:34:35.517Z,92850.63
2022-12-09T03:37:02.596Z,92853.78
2022-12-09T03:39:31.860Z,92852.75
2022-12-09T03:42:01.788Z,92849.44
2022-12-09T03:44:52.482Z,92846.16
2022-12-09T03:47:19.617Z,92850.25
2022-12-09T03:49:46.874Z,92847.09
2022-12-09T03:52:39.807Z,92835.88
2022-12-09T03:55:26.399Z,92841.44
2022-12-09T03:57:55.194Z,92837.13
2022-12-09T04:00:22.043Z,92838.72
2022-12-09T04:02:49.120Z,92828.47
2022-12-09T04:05:17.871Z,92825.75
2022-12-09T04:07:44.986Z,92827.09
2022-12-09T04:10:12.744Z,92821.38
2022-12-09T04:12:59.687Z,92820.47
2022-12-09T04:15:41.792Z,92819.44
2022-12-09T04:18:18.717Z,92817.97
2022-12-09T04:21:05.340Z,92814.81
2022-12-09T04:23:35.573Z,92822.28
2022-12-09T04:26:05.317Z,92818.47
2022-12-09T04:28:32.573Z,92816.63
2022-12-09T04:30:59.463Z,92815.72
2022-12-09T04:33:26.977Z,92814.22
2022-12-09T04:35:53.799Z,92809.44
2022-12-09T04:38:20.770Z,92802.13
2022-12-09T04:40:47.548Z,92798.69
2022-12-09T04:43:14.645Z,92801.56
2022-12-09T04:45:41.554Z,92803.22
2022-12-09T04:48:08.650Z,92798.63
2022-12-09T04:50:35.826Z,92794.13
2022-12-09T04:53:02.959Z,92793.28
2022-12-09T04:55:30.220Z,92790.34
2022-12-09T04:57:57.356Z,92786.88
2022-12-09T05:00:24.278Z,92795.88
2022-12-09T05:02:51.481Z,92781.41
2022-12-09T05:05:18.467Z,92783.09
2022-12-09T05:07:45.835Z,92779.94
2022-12-09T05:10:13.121Z,92771.00
2022-12-09T05:12:40.478Z,92763.72
2022-12-09T05:15:07.899Z,92765.09
2022-12-09T05:17:35.142Z,92761.28
2022-12-09T05:20:02.125Z,92773.09
2022-12-09T05:22:29.336Z,92760.59
2022-12-09T05:24:56.566Z,92764.31
2022-12-09T05:27:23.483Z,92767.28
2022-12-09T05:29:51.007Z,92768.84
2022-12-09T05:32:19.323Z,92766.88
2022-12-09T05:34:46.328Z,92767.13
2022-12-09T05:37:14.731Z,92758.28
2022-12-09T05:39:41.915Z,92763.72
2022-12-09T05:42:08.824Z,92758.94
2022-12-09T05:44:36.256Z,92754.06
2022-12-09T05:47:04.773Z,92746.28
2022-12-09T05:49:32.134Z,92745.09
2022-12-09T05:51:59.696Z,92750.84
2022-12-09T05:54:27.515Z,92745.44
2022-12-09T05:56:54.862Z,92755.50
2022-12-09T05:59:22.168Z,92747.50
2022-12-09T06:01:49.439Z,92746.88
2022-12-09T06:04:16.588Z,92744.97
2022-12-09T06:06:44.256Z,92741.94
2022-12-09T06:09:13.321Z,92741.91
2022-12-09T06:11:40.458Z,92736.47
2022-12-09T06:14:08.347Z,92737.56
2022-12-09T06:16:35.746Z,92731.88
2022-12-09T06:19:02.854Z,92729.88
2022-12-09T06:21:29.889Z,92734.47
2022-12-09T06:23:56.815Z,92729.94
2022-12-09T06:26:28.904Z,92736.50
2022-12-09T06:28:56.888Z,92738.97
2022-12-09T06:31:24.835Z,92738.94
2022-12-09T06:33:57.236Z,92737.13
2022-12-09T06:36:26.198Z,92736.78
2022-12-09T06:38:53.374Z,92741.78
2022-12-09T06:41:20.680Z,92736.25
2022-12-09T06:43:48.180Z,92743.63
2022-12-09T06:46:17.013Z,92740.16
2022-12-09T06:48:44.624Z,92742.28
2022-12-09T06:51:11.968Z,92746.31
2022-12-09T06:53:39.720Z,92738.06
2022-12-09T06:56:12.135Z,92734.94
2022-12-09T06:58:39.795Z,92738.06
2022-12-09T07:01:14.248Z,92740.06
2022-12-09T07:03:42.845Z,92733.50
2022-12-09T07:06:40.255Z,92735.69
2022-12-09T07:09:08.855Z,92740.94
2022-12-09T07:11:36.836Z,92739.22
2022-12-09T07:14:04.410Z,92732.34
2022-12-09T07:16:31.981Z,92734.09
2022-12-09T07:18:59.400Z,92742.81
2022-12-09T07:21:27.037Z,92738.44
2022-12-09T07:23:54.109Z,92745.78
2022-12-09T07:26:21.640Z,92742.91
2022-12-09T07:28:50.124Z,92742.31
2022-12-09T07:31:41.853Z,92750.06
2022-12-09T07:34:10.233Z,92749.84
2022-12-09T07:36:37.960Z,92759.75
2022-12-09T07:39:07.726Z,92757.72
2022-12-09T07:41:35.316Z,92757.88
2022-12-09T07:44:02.608Z,92766.63
2022-12-09T07:46:29.929Z,92768.78
2022-12-09T07:48:57.313Z,92765.84
2022-12-09T07:51:25.029Z,92769.63
2022-12-09T07:53:52.577Z,92763.63
2022-12-09T07:56:19.629Z,92768.88
2022-12-09T07:58:47.780Z,92769.25
2022-12-09T08:01:20.287Z,92761.13
2022-12-09T08:03:47.658Z,92766.00
2022-12-09T08:06:18.224Z,92761.31
2022-12-09T08:08:46.450Z,92764.25
2022-12-09T08:11:19.762Z,92763.84
2022-12-09T08:13:48.279Z,92761.91
2022-12-09T08:16:16.967Z,92757.09
2022-12-09T08:18:45.711Z,92758.69
2022-12-09T08:21:14.896Z,92766.69
2022-12-09T08:23:42.034Z,92758.84
2022-12-09T08:26:09.833Z,92764.31
2022-12-09T08:28:37.307Z,92760.84
2022-12-09T08:31:09.176Z,92763.50
2022-12-09T08:33:36.536Z,92759.38
2022-12-09T08:36:04.068Z,92763.94
2022-12-09T08:38:31.366Z,92758.34
2022-12-09T08:40:59.082Z,92764.94
2022-12-09T08:43:26.430Z,92762.94
2022-12-09T08:45:54.646Z,92766.13
2022-12-09T08:48:21.594Z,92770.72
2022-12-09T08:50:49.963Z,92763.16
2022-12-09T08:53:17.909Z,92766.91
2022-12-09T08:55:45.517Z,92769.13
2022-12-09T08:58:14.121Z,92764.28
2022-12-09T09:00:43.425Z,92768.94
2022-12-09T09:03:11.490Z,92763.50
2022-12-09T09:05:38.613Z,92768.78
2022-12-09T09:08:06.639Z,92775.16
2022-12-09T09:10:34.087Z,92767.91
2022-12-09T09:13:01.093Z,92775.47
2022-12-09T09:15:28.321Z,92776.13
2022-12-09T09:17:55.880Z,92773.41
2022-12-09T09:20:23.338Z,92767.84
2022-12-09T09:22:51.030Z,92766.28
2022-12-09T09:25:18.363Z,92761.81
2022-12-09T09:27:45.920Z,92765.44
2022-12-09T09:30:14.673Z,92762.41
2022-12-09T09:32:42.993Z,92767.13
2022-12-09T09:35:11.970Z,92757.91
2022-12-09T09:37:38.985Z,92757.47
2022-12-09T09:40:09.743Z,92752.59
2022-12-09T09:42:43.449Z,92756.94
2022-12-09T09:45:14.632Z,92760.06
2022-12-09T09:47:43.543Z,92761.06
2022-12-09T09:50:28.476Z,92750.03
2022-12-09T09:52:56.207Z,92756.91
2022-12-09T09:55:43.869Z,92752.53
2022-12-09T09:58:19.103Z,92759.03
2022-12-09T10:00:56.965Z,92752.75
2022-12-09T10:03:50.097Z,92754.44
2022-12-09T10:06:45.700Z,92754.09
2022-12-09T10:09:37.040Z,92754.88
2022-12-09T10:12:23.707Z,92751.88
2022-12-09T10:15:00.830Z,92753.78
2022-12-09T10:17:35.194Z,92749.59
2022-12-09T10:20:17.187Z,92745.78
2022-12-09T10:23:00.101Z,92746.31
2022-12-09T10:25:29.220Z,92750.81
2022-12-09T10:27:56.189Z,92744.53
2022-12-09T10:30:23.201Z,92740.28
2022-12-09T10:32:50.957Z,92743.03
2022-12-09T10:35:21.908Z,92739.06
2022-12-09T10:37:51.164Z,92730.50
2022-12-09T10:40:24.816Z,92726.97
2022-12-09T10:42:53.682Z,92732.31
2022-12-09T10:45:20.992Z,92728.56
2022-12-09T10:47:51.457Z,92722.03
2022-12-09T10:50:27.472Z,92720.25
2022-12-09T10:52:55.580Z,92709.63
2022-12-09T10:55:26.534Z,92720.81
2022-12-09T10:58:16.398Z,92720.25
2022-12-09T11:00:43.346Z,92721.78
2022-12-09T11:03:25.717Z,92717.47
2022-12-09T11:06:16.484Z,92719.66
2022-12-09T11:08:54.474Z,92717.16
2022-12-09T11:11:38.736Z,92716.53
2022-12-09T11:14:28.013Z,92718.59
2022-12-09T11:16:58.106Z,92724.72
2022-12-09T11:19:36.015Z,92721.41
2022-12-09T11:22:33.509Z,92724.59
2022-12-09T11:25:13.193Z,92712.38
2022-12-09T11:27:56.429Z,92714.63
2022-12-09T11:30:32.047Z,92718.19
2022-12-09T11:33:01.187Z,92711.94
2022-12-09T11:35:46.898Z,92716.34
2022-12-09T11:38:44.080Z,92708.13
2022-12-09T11:41:24.050Z,92710.63
2022-12-09T11:43:52.168Z,92706.34
2022-12-09T11:46:22.207Z,92699.53
2022-12-09T11:49:15.688Z,92700.66
2022-12-09T11:51:59.616Z,92699.97
2022-12-09T11:54:32.149Z,92694.25
2022-12-09T11:56:59.196Z,92701.75
2022-12-09T11:59:45.864Z,92690.28
2022-12-09T12:02:47.015Z,92690.63
2022-12-09T12:05:23.948Z,92688.94
2022-12-09T12:08:01.414Z,92693.81
2022-12-09T12:10:41.948Z,92696.81
2022-12-09T12:13:39.210Z,92696.25
2022-12-09T12:16:09.361Z,92693.25
2022-12-09T12:19:19.738Z,92694.66
2022-12-09T12:22:16.828Z,92689.13
2022-12-09T12:24:58.716Z,92697.53
2022-12-09T12:27:30.104Z,92694.81
2022-12-09T12:30:09.401Z,92697.88
2022-12-09T12:32:42.336Z,92694.38
2022-12-09T12:35:39.104Z,92696.28
2022-12-09T12:38:22.950Z,92695.25
2022-12-09T12:41:13.249Z,92694.72
2022-12-09T12:43:55.112Z,92699.38
2022-12-09T12:46:30.658Z,92700.22
2022-12-09T12:49:34.359Z,92700.53
2022-12-09T12:52:53.832Z,92704.16
2022-12-09T12:55:22.023Z,92705.44
2022-12-09T12:58:08.037Z,92706.38
2022-12-09T13:01:19.550Z,92709.78
2022-12-09T13:04:01.421Z,92717.47
2022-12-09T13:07:21.366Z,92715.50
2022-12-09T13:10:05.698Z,92710.88
2022-12-09T13:12:36.451Z,92716.91
2022-12-09T13:15:03.966Z,92716.91
2022-12-09T13:17:31.009Z,92723.06
2022-12-09T13:20:00.098Z,92724.16
2022-12-09T13:22:53.303Z,92719.34
2022-12-09T13:25:40.683Z,92719.47
2022-12-09T13:28:11.288Z,92728.69
2022-12-09T13:30:55.060Z,92721.22
2022-12-09T13:33:25.742Z,92718.63
2022-12-09T13:36:06.875Z,92725.34
2022-12-09T13:38:41.292Z,92711.88
2022-12-09T13:41:28.725Z,92719.56
2022-12-09T13:44:14.553Z,92715.84
2022-12-09T13:46:41.470Z,92718.78
2022-12-09T13:49:11.149Z,92722.44
2022-12-09T13:51:44.903Z,92716.03
2022-12-09T13:54:16.720Z,92719.06
2022-12-09T13:56:44.322Z,92720.28
2022-12-09T13:59:33.114Z,92715.44
2022-12-09T14:02:02.232Z,92707.72
2022-12-09T14:04:36.761Z,92721.19
2022-12-09T14:07:30.364Z,92712.06
2022-12-09T14:09:57.751Z,92725.16
2022-12-09T14:12:27.655Z,92717.44
2022-12-09T14:14:55.735Z,92730.22
2022-12-09T14:17:42.228Z,92729.47
2022-12-09T14:20:23.946Z,92726.59
2022-12-09T14:23:07.609Z,92727.84
2022-12-09T14:25:54.240Z,92722.88
2022-12-09T14:28:24.855Z,92729.25
2022-12-09T14:31:06.690Z,92721.06
2022-12-09T14:33:37.642Z,92731.91
2022-12-09T14:36:08.985Z,92732.06
2022-12-09T14:38:54.420Z,92741.00
2022-12-09T14:41:44.057Z,92738.91
2022-12-09T14:44:34.812Z,92746.72
2022-12-09T14:47:21.104Z,92749.25
2022-12-09T14:49:55.055Z,92755.97
2022-12-09T14:52:25.431Z,92757.56
2022-12-09T14:54:52.680Z,92766.88
2022-12-09T14:57:33.006Z,92784.00
2022-12-09T15:00:03.878Z,92777.19
2022-12-09T15:02:31.846Z,92776.31
2022-12-09T15:05:00.242Z,92783.16
2022-12-09T15:07:28.802Z,92778.28
2022-12-09T15:09:58.809Z,92785.47
2022-12-09T15:12:34.566Z,92777.41
2022-12-09T15:15:25.003Z,92774.56
2022-12-09T15:18:00.512Z,92776.31
2022-12-09T15:20:31.619Z,92781.69
2022-12-09T15:23:11.953Z,92784.31
2022-12-09T15:25:48.637Z,92768.47
2022-12-09T15:28:35.769Z,92766.19
2022-12-09T15:31:13.347Z,92769.25
2022-12-09T15:33:46.550Z,92756.34
2022-12-09T15:36:35.693Z,92762.38
2022-12-09T15:39:08.898Z,92759.78
2022-12-09T15:41:47.016Z,92774.69
2022-12-09T15:44:16.485Z,92770.75
2022-12-09T15:46:43.238Z,92762.00
2022-12-09T15:49:11.386Z,92764.06
2022-12-09T15:51:38.401Z,92756.81
2022-12-09T15:54:07.020Z,92773.22
2022-12-09T15:56:45.884Z,92771.09
2022-12-09T15:59:17.606Z,92764.84
2022-12-09T16:01:49.429Z,92764.06
2022-12-09T16:04:21.438Z,92763.41
2022-12-09T16:06:48.488Z,92757.47
2022-12-09T16:09:17.914Z,92753.38
2022-12-09T16:11:46.328Z,92750.91
2022-12-09T16:14:13.533Z,92752.13
2022-12-09T16:16:51.897Z,92751.69
2022-12-09T16:19:34.574Z,92759.69
2022-12-09T16:22:10.772Z,92759.94
2022-12-09T16:27:35.405Z,92772.03
2022-12-09T16:30:11.392Z,92777.50
2022-12-09T16:32:44.680Z,92777.44
2022-12-09T16:35:14.064Z,92778.88
2022-12-09T16:37:42.089Z,92781.81
2022-12-09T16:40:24.608Z,92779.28
2022-12-09T16:43:37.914Z,92774.41
2022-12-09T16:46:37.299Z,92769.25
2022-12-09T16:49:06.987Z,92768.53
2022-12-09T16:51:34.606Z,92771.72
2022-12-09T16:54:01.813Z,92768.53
2022-12-09T16:56:31.223Z,92764.31
2022-12-09T16:58:59.315Z,92773.81
2022-12-09T17:01:39.745Z,92765.84
2022-12-09T17:04:21.285Z,92777.06
2022-12-09T17:06:51.301Z,92772.47
2022-12-09T17:09:18.010Z,92770.75
2022-12-09T17:11:48.758Z,92765.97
2022-12-09T17:14:17.824Z,92769.25
2022-12-09T17:16:45.001Z,92773.38
2022-12-09T17:19:12.306Z,92771.78
2022-12-09T17:21:39.430Z,92772.75
2022-12-09T17:24:06.525Z,92778.31
2022-12-09T17:26:33.813Z,92778.44
2022-12-09T17:29:03.617Z,92783.38
2022-12-09T17:31:30.659Z,92778.31
2022-12-09T17:34:00.246Z,92787.56
2022-12-09T17:36:26.961Z,92770.19
2022-12-09T17:38:53.786Z,92786.13
2022-12-09T17:41:23.591Z,92776.22
2022-12-09T17:43:50.785Z,92779.78
2022-12-09T17:46:17.946Z,92784.09
2022-12-09T17:48:46.045Z,92790.44
2022-12-09T17:51:15.291Z,92794.00
2022-12-09T17:53:42.887Z,92794.66
2022-12-09T17:56:14.743Z,92794.00
2022-12-09T17:58:41.613Z,92796.78
2022-12-09T18:01:19.606Z,92798.63
2022-12-09T18:03:56.188Z,92791.53
2022-12-09T18:06:27.429Z,92805.34
2022-12-09T18:08:54.357Z,92812.06
2022-12-09T18:11:21.150Z,92814.00
2022-12-09T18:13:47.963Z,92813.94
2022-12-09T18:16:15.758Z,92815.66
2022-12-09T18:18:42.708Z,92818.66
2022-12-09T18:21:15.300Z,92818.97
2022-12-09T18:23:43.606Z,92813.56
2022-12-09T18:26:15.209Z,92815.84
2022-12-09T18:28:42.071Z,92816.38
2022-12-09T18:31:14.501Z,92822.97
2022-12-09T18:33:41.587Z,92823.03
2022-12-09T18:36:14.413Z,92826.25
2022-12-09T18:38:41.242Z,92826.25
2022-12-09T18:41:18.687Z,92823.75
2022-12-09T18:43:48.297Z,92817.03
2022-12-09T18:46:29.795Z,92829.31
2022-12-09T18:49:17.263Z,92819.22
2022-12-09T18:51:44.869Z,92821.66
2022-12-09T18:54:19.297Z,92829.50
2022-12-09T18:56:46.676Z,92825.97
2022-12-09T18:59:13.409Z,92828.34
2022-12-09T19:01:41.923Z,92832.09
2022-12-09T19:04:14.222Z,92834.56
2022-12-09T19:06:43.216Z,92839.63
2022-12-09T19:09:13.444Z,92839.38
2022-12-09T19:11:41.744Z,92847.09
2022-12-09T19:14:08.681Z,92848.28
2022-12-09T19:16:36.048Z,92845.44
2022-12-09T19:19:09.648Z,92852.47
2022-12-09T19:21:37.730Z,92851.19
2022-12-09T19:24:05.640Z,92859.09
2022-12-09T19:26:34.068Z,92852.38
2022-12-09T19:29:05.071Z,92857.94
2022-12-09T19:31:37.055Z,92852.25
2022-12-09T19:34:27.036Z,92852.53
2022-12-09T19:36:55.046Z,92859.94
2022-12-09T19:39:25.099Z,92858.41
2022-12-09T19:41:53.952Z,92878.41
2022-12-09T19:44:52.547Z,92870.59
2022-12-09T19:47:14.220Z,92876.63
2022-12-09T19:49:41.301Z,92861.56
2022-12-09T19:52:08.548Z,92868.91
2022-12-09T19:57:18.864Z,92871.41
2022-12-09T19:59:46.759Z,92868.59
2022-12-09T20:02:19.213Z,92866.78
2022-12-09T20:04:49.252Z,92868.88
2022-12-09T20:07:16.781Z,92871.66
2022-12-09T20:09:43.756Z,92882.72
2022-12-09T20:12:10.609Z,92882.31
2022-12-09T20:14:39.435Z,92877.75
2022-12-09T20:17:06.792Z,92889.28
2022-12-09T20:19:37.328Z,92894.81
2022-12-09T20:22:04.158Z,92890.97
2022-12-09T20:24:36.216Z,92884.97
2022-12-09T20:27:03.050Z,92885.81
2022-12-09T20:29:35.563Z,92879.53
2022-12-09T20:32:04.390Z,92887.69
2022-12-09T20:34:52.058Z,92882.47
2022-12-09T20:37:19.050Z,92880.75
2022-12-09T20:39:46.019Z,92885.19
2022-12-09T20:42:12.821Z,92885.50
2022-12-09T20:44:42.501Z,92876.00
2022-12-09T20:47:09.844Z,92880.31
2022-12-09T20:49:37.104Z,92887.69
2022-12-09T20:52:04.361Z,92870.75
2022-12-09T20:54:31.197Z,92873.34
2022-12-09T20:56:57.970Z,92878.09
2022-12-09T20:59:24.961Z,92875.78
2022-12-09T21:01:51.700Z,92881.50
2022-12-09T21:04:18.481Z,92881.50
2022-12-09T21:06:45.232Z,92882.41
2022-12-09T21:09:14.583Z,92874.44
2022-12-09T21:11:41.300Z,92881.41
2022-12-09T21:14:08.054Z,92874.66
2022-12-09T21:16:38.140Z,92881.78
2022-12-09T21:19:05.253Z,92878.72
2022-12-09T21:21:33.578Z,92871.53
2022-12-09T21:24:00.432Z,92878.13
2022-12-09T21:26:27.208Z,92874.44
2022-12-09T21:28:53.951Z,92883.78
2022-12-09T21:31:25.865Z,92885.91
2022-12-09T21:33:53.351Z,92882.50
2022-12-09T21:36:22.628Z,92885.28
2022-12-09T21:38:50.801Z,92879.09
2022-12-09T21:41:19.712Z,92891.59
2022-12-09T21:43:46.804Z,92893.44
2022-12-09T21:46:17.665Z,92889.94
2022-12-09T21:48:48.018Z,92886.84
2022-12-09T21:51:18.756Z,92883.19
2022-12-09T21:53:47.695Z,92889.97
2022-12-09T21:56:25.988Z,92880.34
2022-12-09T21:58:59.932Z,92891.44
2022-12-09T22:01:31.824Z,92885.84
2022-12-09T22:03:59.821Z,92879.72
2022-12-09T22:06:27.756Z,92880.41
2022-12-09T22:09:00.923Z,92885.94
2022-12-09T22:11:30.223Z,92892.38
2022-12-09T22:13:57.994Z,92894.72
2022-12-09T22:16:26.647Z,92893.53
2022-12-09T22:18:54.566Z,92897.81
2022-12-09T22:21:25.222Z,92897.75
2022-12-09T22:23:56.306Z,92898.63
2022-12-09T22:26:23.454Z,92894.53
2022-12-09T22:28:50.533Z,92907.72
2022-12-09T22:31:23.423Z,92896.47
2022-12-09T22:33:51.556Z,92908.69
2022-12-09T22:36:18.340Z,92910.63
2022-12-09T22:38:46.242Z,92906.06
2022-12-09T22:41:20.839Z,92903.81
2022-12-09T22:43:48.010Z,92901.88
2022-12-09T22:46:21.996Z,92908.22
2022-12-09T22:48:48.924Z,92897.94
2022-12-09T22:51:21.531Z,92899.91
2022-12-09T22:53:50.240Z,92900.63
2022-12-09T22:56:17.102Z,92896.44
2022-12-09T22:58:44.335Z,92908.28
2022-12-09T23:01:12.706Z,92906.97
2022-12-09T23:03:39.787Z,92917.50
2022-12-09T23:06:06.850Z,92911.09
2022-12-09T23:08:34.097Z,92910.19
2022-12-09T23:11:05.989Z,92913.50
2022-12-09T23:13:40.475Z,92914.25
2022-12-09T23:16:08.637Z,92909.78
2022-12-09T23:18:35.625Z,92914.75
2022-12-09T23:21:08.650Z,92908.44
2022-12-09T23:23:36.692Z,92916.00
2022-12-09T23:26:11.334Z,92911.34
2022-12-09T23:28:38.899Z,92913.25
2022-12-09T23:31:06.473Z,92906.97
2022-12-09T23:33:34.161Z,92905.44
2022-12-09T23:36:13.669Z,92900.06
2022-12-09T23:38:40.722Z,92907.50
2022-12-09T23:41:07.542Z,92896.06
2022-12-09T23:43:37.458Z,92902.00
2022-12-09T23:46:14.983Z,92913.44
2022-12-09T23:48:45.853Z,92911.59
2022-12-09T23:51:32.067Z,92911.72
2022-12-09T23:54:00.442Z,92910.69
2022-12-09T23:56:30.090Z,92912.22
2022-12-09T23:58:59.685Z,92907.69
